Time;durP1;ratioP1;P1;durP2;ratioP2;P2;SDS_P1;SDS_P2;PMS_P1;PMS_P2;Temp;Humidity;BMP_temperature;BMP_pressure;BME280_temperature;BME280_humidity;BME280_pressure;Samples;Min_cycle;Max_cycle;Signal;HPM_P1;HPM_P2
2021/12/05 00:16:56;;;;;;;28.20;9.00;;;;;;;;;;4967858;28;106741;-62
2021/12/05 00:24:29;;;;;;;27.77;7.75;;;;;;;;;;4955303;28;105824;-63
2021/12/05 00:27:01;;;;;;;24.30;6.90;;;;;;;;;;4952890;28;106969;-63
2021/12/05 00:29:44;;;;;;;25.63;6.80;;;;;;;;;;4954837;28;106877;-63
2021/12/05 00:40:41;;;;;;;20.05;5.75;;;;;;;;;;4962836;28;105892;-63
2021/12/05 00:48:25;;;;;;;25.45;5.43;;;;;;;;;;4966252;28;106773;-63
2021/12/05 01:07:19;;;;;;;21.92;5.18;;;;;;;;;;4948461;28;106071;-62
2021/12/05 01:10:03;;;;;;;17.08;4.50;;;;;;;;;;4966699;28;106278;-63
2021/12/05 01:12:43;;;;;;;19.75;4.53;;;;;;;;;;4958369;28;107616;-62
2021/12/05 01:15:15;;;;;;;24.70;5.45;;;;;;;;;;4929516;28;106216;-63
2021/12/05 01:17:58;;;;;;;24.50;4.85;;;;;;;;;;4938745;28;108966;-62
2021/12/05 01:20:26;;;;;;;15.50;4.80;;;;;;;;;;4948393;28;108419;-63
2021/12/05 01:23:01;;;;;;;21.50;4.78;;;;;;;;;;4967881;28;107882;-63
2021/12/05 01:28:10;;;;;;;22.98;5.18;;;;;;;;;;4965168;28;106940;-63
2021/12/05 01:30:54;;;;;;;21.02;4.97;;;;;;;;;;4948001;28;107804;-62
2021/12/05 01:33:32;;;;;;;18.42;6.22;;;;;;;;;;4943163;28;108473;-64
2021/12/05 01:38:52;;;;;;;19.48;4.47;;;;;;;;;;4954993;28;108547;-63
2021/12/05 01:46:56;;;;;;;28.60;4.63;;;;;;;;;;4965731;28;120172;-62
2021/12/05 02:43:37;;;;;;;14.13;3.75;;;;;;;;;;4963430;28;107999;-63
2021/12/05 02:46:06;;;;;;;28.52;4.18;;;;;;;;;;4963988;28;109422;-64
2021/12/05 02:48:35;;;;;;;16.67;3.57;;;;;;;;;;4963099;28;107628;-63
2021/12/05 02:51:02;;;;;;;;;;;;;;;;;;4948603;28;107938;-63
2021/12/05 02:53:51;;;;;;;18.00;3.13;;;;;;;;;;4964337;28;107268;-63
2021/12/05 02:56:20;;;;;;;17.20;3.85;;;;;;;;;;4950708;28;106162;-63
2021/12/05 02:58:56;;;;;;;17.58;4.00;;;;;;;;;;4957348;28;106868;-63
2021/12/05 03:01:42;;;;;;;18.25;3.60;;;;;;;;;;4954718;28;106246;-63
2021/12/05 03:04:09;;;;;;;17.45;3.58;;;;;;;;;;4961213;28;108083;-63
2021/12/05 03:06:38;;;;;;;15.52;3.40;;;;;;;;;;4951121;28;109765;-62
2021/12/05 03:09:08;;;;;;;15.35;3.35;;;;;;;;;;4950222;28;108079;-63
2021/12/05 03:11:35;;;;;;;27.23;3.78;;;;;;;;;;4933109;28;108289;-64
2021/12/05 03:14:01;;;;;;;24.20;4.75;;;;;;;;;;4947303;28;107245;-62
2021/12/05 03:16:30;;;;;;;18.58;3.10;;;;;;;;;;4952186;28;106125;-63
2021/12/05 03:18:57;;;;;;;18.92;3.63;;;;;;;;;;4937359;28;108475;-62
2021/12/05 03:21:24;;;;;;;23.05;3.22;;;;;;;;;;4950104;28;105941;-62
2021/12/05 03:23:51;;;;;;;14.93;3.30;;;;;;;;;;4968058;28;106728;-62
2021/12/05 03:26:21;;;;;;;20.77;3.33;;;;;;;;;;4961652;28;107425;-62
2021/12/05 03:28:50;;;;;;;14.10;2.95;;;;;;;;;;4966008;28;107238;-61
2021/12/05 03:31:18;;;;;;;20.65;3.58;;;;;;;;;;4945539;28;108888;-62
2021/12/05 03:33:49;;;;;;;17.42;3.75;;;;;;;;;;4964776;28;108562;-62
2021/12/05 03:36:17;;;;;;;20.95;4.20;;;;;;;;;;4946708;28;106010;-62
2021/12/05 03:38:46;;;;;;;16.20;3.78;;;;;;;;;;4947757;28;108162;-64
2021/12/05 03:41:14;;;;;;;14.23;3.00;;;;;;;;;;4950505;28;108890;-63
2021/12/05 03:43:43;;;;;;;17.17;3.25;;;;;;;;;;4949923;28;109114;-64
2021/12/05 03:46:10;;;;;;;14.23;3.65;;;;;;;;;;4946527;28;109157;-62
2021/12/05 03:48:39;;;;;;;14.73;3.40;;;;;;;;;;4965736;28;107991;-62
2021/12/05 03:51:08;;;;;;;26.33;3.80;;;;;;;;;;4942382;28;107998;-62
2021/12/05 03:53:35;;;;;;;16.50;3.47;;;;;;;;;;4951068;28;110410;-63
2021/12/05 03:56:08;;;;;;;17.25;3.67;;;;;;;;;;4966256;28;106209;-62
2021/12/05 03:58:36;;;;;;;15.30;3.08;;;;;;;;;;4948709;28;107797;-62
2021/12/05 04:01:08;;;;;;;23.35;4.22;;;;;;;;;;4941934;28;108553;-62
2021/12/05 04:03:37;;;;;;;13.63;4.60;;;;;;;;;;4971363;28;107224;-62
2021/12/05 04:06:05;;;;;;;18.85;3.42;;;;;;;;;;4949448;28;110883;-62
2021/12/05 04:08:32;;;;;;;19.88;3.75;;;;;;;;;;4950112;28;105992;-62
2021/12/05 04:11:01;;;;;;;20.95;3.60;;;;;;;;;;4967216;28;107575;-62
2021/12/05 04:13:30;;;;;;;18.35;3.45;;;;;;;;;;4947334;28;109104;-62
2021/12/05 04:16:00;;;;;;;24.60;3.63;;;;;;;;;;4964061;28;106257;-62
2021/12/05 04:18:27;;;;;;;20.35;3.55;;;;;;;;;;4956033;28;108599;-62
2021/12/05 04:20:57;;;;;;;15.13;3.50;;;;;;;;;;4948909;28;108791;-62
2021/12/05 04:23:24;;;;;;;12.75;3.47;;;;;;;;;;4967640;28;106731;-62
2021/12/05 04:25:52;;;;;;;16.30;3.53;;;;;;;;;;4948465;28;109570;-62
2021/12/05 04:28:20;;;;;;;14.98;3.55;;;;;;;;;;4949396;28;107458;-62
2021/12/05 04:30:48;;;;;;;22.93;3.93;;;;;;;;;;4959268;28;108242;-62
2021/12/05 04:33:15;;;;;;;20.95;3.65;;;;;;;;;;4945420;28;108532;-63
2021/12/05 04:35:42;;;;;;;15.10;3.97;;;;;;;;;;4963930;28;107524;-62
2021/12/05 04:38:09;;;;;;;15.77;3.83;;;;;;;;;;4953097;28;108001;-62
2021/12/05 04:40:39;;;;;;;15.48;3.40;;;;;;;;;;4938854;28;108447;-62
2021/12/05 04:43:06;;;;;;;22.90;4.10;;;;;;;;;;4963758;28;106728;-62
2021/12/05 04:45:34;;;;;;;17.30;3.85;;;;;;;;;;4942861;28;107881;-62
2021/12/05 04:48:02;;;;;;;19.80;3.70;;;;;;;;;;4952385;28;105681;-63
2021/12/05 04:50:30;;;;;;;16.50;3.67;;;;;;;;;;4946057;28;108819;-63
2021/12/05 04:52:57;;;;;;;11.15;3.50;;;;;;;;;;4949152;28;109852;-62
2021/12/05 04:55:24;;;;;;;11.55;4.15;;;;;;;;;;4946390;28;107579;-63
2021/12/05 04:57:52;;;;;;;14.75;3.50;;;;;;;;;;4949416;28;108491;-63
2021/12/05 05:00:21;;;;;;;18.70;4.63;;;;;;;;;;4964992;28;108703;-63
2021/12/05 05:02:48;;;;;;;16.98;3.83;;;;;;;;;;4965485;28;106284;-63
2021/12/05 05:05:15;;;;;;;20.58;4.20;;;;;;;;;;4967849;28;106562;-63
2021/12/05 05:07:43;;;;;;;14.32;4.60;;;;;;;;;;4949307;28;109622;-63
2021/12/05 05:10:20;;;;;;;12.35;4.10;;;;;;;;;;4963688;28;108313;-62
2021/12/05 05:12:48;;;;;;;19.13;4.05;;;;;;;;;;4963975;28;107590;-62
2021/12/05 05:15:19;;;;;;;21.13;4.45;;;;;;;;;;4964275;28;106256;-62
2021/12/05 05:17:49;;;;;;;18.45;4.70;;;;;;;;;;4964139;28;106888;-63
2021/12/05 05:20:25;;;;;;;15.52;4.38;;;;;;;;;;4965524;28;107504;-62
2021/12/05 05:39:53;;;;;;;21.23;5.07;;;;;;;;;;4964863;28;106896;-63
2021/12/05 05:45:33;;;;;;;15.57;5.13;;;;;;;;;;4965185;28;108127;-62
2021/12/05 05:48:04;;;;;;;12.75;5.63;;;;;;;;;;4957625;28;107181;-63
2021/12/05 05:50:30;;;;;;;11.98;4.95;;;;;;;;;;4965828;28;106461;-63
2021/12/05 05:52:56;;;;;;;24.40;6.25;;;;;;;;;;4965731;28;108797;-63
2021/12/05 05:55:23;;;;;;;14.77;5.25;;;;;;;;;;4969567;28;107647;-64
2021/12/05 06:00:29;;;;;;;17.27;6.10;;;;;;;;;;4939907;28;107053;-62
2021/12/05 06:05:41;;;;;;;13.90;5.35;;;;;;;;;;4960824;28;106248;-62
2021/12/05 06:08:07;;;;;;;18.75;5.88;;;;;;;;;;4957997;28;106856;-64
2021/12/05 06:10:33;;;;;;;14.90;6.13;;;;;;;;;;4961333;28;107596;-62
2021/12/05 06:13:00;;;;;;;14.15;5.95;;;;;;;;;;4964427;28;105951;-63
2021/12/05 06:15:28;;;;;;;23.02;7.10;;;;;;;;;;4965729;28;107681;-62
2021/12/05 06:17:55;;;;;;;18.85;6.95;;;;;;;;;;4968534;28;107803;-63
2021/12/05 06:20:25;;;;;;;15.88;6.20;;;;;;;;;;4962604;28;106962;-62
2021/12/05 06:22:56;;;;;;;17.60;7.15;;;;;;;;;;4957456;28;107401;-62
2021/12/05 06:25:24;;;;;;;17.15;6.18;;;;;;;;;;4961800;28;106182;-64
2021/12/05 06:27:52;;;;;;;14.63;6.03;;;;;;;;;;4955443;28;106246;-62
2021/12/05 06:30:32;;;;;;;17.02;6.20;;;;;;;;;;4952537;28;110486;-62
2021/12/05 06:46:27;;;;;;;14.60;6.55;;;;;;;;;;4964391;28;108119;-65
2021/12/05 06:48:53;;;;;;;14.52;6.68;;;;;;;;;;4958805;28;107278;-64
2021/12/05 06:51:21;;;;;;;16.13;6.95;;;;;;;;;;4965359;28;106568;-62
2021/12/05 06:53:48;;;;;;;18.83;7.20;;;;;;;;;;4963957;28;106828;-64
2021/12/05 06:56:14;;;;;;;16.25;7.30;;;;;;;;;;4964634;28;106592;-62
2021/12/05 06:58:40;;;;;;;16.17;6.70;;;;;;;;;;4963497;28;107350;-61
2021/12/05 07:01:08;;;;;;;16.25;7.18;;;;;;;;;;4967995;28;106144;-63
2021/12/05 07:03:39;;;;;;;14.23;6.53;;;;;;;;;;4964886;28;107180;-63
2021/12/05 07:06:11;;;;;;;19.35;7.68;;;;;;;;;;4965614;28;106102;-62
2021/12/05 07:08:40;;;;;;;19.60;7.18;;;;;;;;;;4963981;28;106683;-63
2021/12/05 07:11:15;;;;;;;16.75;7.32;;;;;;;;;;4964597;28;109485;-65
2021/12/05 07:16:42;;;;;;;14.02;7.25;;;;;;;;;;4965026;28;107652;-64
2021/12/05 07:21:57;;;;;;;;;;;;;;;;;;4964439;28;106239;-63
2021/12/05 07:27:10;;;;;;;21.02;7.00;;;;;;;;;;4962250;28;106245;-63
2021/12/05 07:40:40;;;;;;;17.42;7.38;;;;;;;;;;4961643;28;111038;-63
2021/12/05 07:43:08;;;;;;;16.23;7.00;;;;;;;;;;4963942;28;107089;-63
2021/12/05 07:45:42;;;;;;;16.20;6.55;;;;;;;;;;4963428;28;106097;-63
2021/12/05 07:48:11;;;;;;;14.32;7.68;;;;;;;;;;4963681;28;107492;-63
2021/12/05 07:50:56;;;;;;;15.10;6.87;;;;;;;;;;4963725;28;107662;-63
2021/12/05 07:53:29;;;;;;;16.98;8.00;;;;;;;;;;4959022;28;107629;-63
2021/12/05 07:56:02;;;;;;;17.77;7.43;;;;;;;;;;4967949;28;106359;-63
2021/12/05 08:14:17;;;;;;;20.00;9.30;;;;;;;;;;4967175;28;108153;-63
2021/12/05 08:15:09;;;;;;;13.45;7.43;;;;;;;;;;4967487;28;106455;-63
2021/12/05 08:17:36;;;;;;;18.13;6.72;;;;;;;;;;4967144;28;107104;-63
2021/12/05 08:20:04;;;;;;;17.92;7.43;;;;;;;;;;4965591;28;106102;-63
2021/12/05 08:22:30;;;;;;;15.43;6.72;;;;;;;;;;4966272;28;106470;-63
2021/12/05 08:25:00;;;;;;;18.80;7.10;;;;;;;;;;4966866;28;107180;-63
2021/12/05 08:27:26;;;;;;;;;;;;;;;;;;4967678;28;107045;-63
2021/12/05 08:29:56;;;;;;;15.27;6.95;;;;;;;;;;4964813;28;136398;-65
2021/12/05 08:32:32;;;;;;;15.88;7.45;;;;;;;;;;4964197;28;107585;-64
2021/12/05 08:35:19;;;;;;;13.20;6.43;;;;;;;;;;4969054;28;107122;-63
2021/12/05 08:45:56;;;;;;;15.55;6.75;;;;;;;;;;4965985;28;107621;-65
2021/12/05 09:24:03;;;;;;;15.30;7.03;;;;;;;;;;4961863;28;107753;-63
2021/12/05 09:29:47;;;;;;;20.83;8.60;;;;;;;;;;4961719;28;106394;-63
2021/12/05 09:38:37;;;;;;;15.30;7.95;;;;;;;;;;4963412;28;106726;-65
2021/12/05 10:08:04;;;;;;;20.08;8.68;;;;;;;;;;4962064;28;107641;-63
2021/12/05 10:13:17;;;;;;;17.95;9.02;;;;;;;;;;4959071;28;106335;-62
2021/12/05 10:18:45;;;;;;;19.38;9.15;;;;;;;;;;4942474;28;107580;-62
2021/12/05 10:35:19;;;;;;;19.08;8.73;;;;;;;;;;4962832;28;107452;-63
2021/12/05 10:37:50;;;;;;;22.50;10.38;;;;;;;;;;4960190;28;107381;-63
2021/12/05 10:40:20;;;;;;;18.48;9.70;;;;;;;;;;4964515;28;106450;-62
2021/12/05 10:42:51;;;;;;;19.05;9.30;;;;;;;;;;4964993;28;106876;-62
2021/12/05 10:45:33;;;;;;;19.02;10.15;;;;;;;;;;4965549;28;107982;-62
2021/12/05 10:48:06;;;;;;;22.08;9.98;;;;;;;;;;4963883;28;107465;-63
2021/12/05 10:50:42;;;;;;;21.77;10.13;;;;;;;;;;4963137;28;106574;-62
2021/12/05 10:53:27;;;;;;;19.17;9.88;;;;;;;;;;4965557;28;107369;-62
2021/12/05 10:55:57;;;;;;;20.38;10.18;;;;;;;;;;4942205;28;109343;-63
2021/12/05 10:58:29;;;;;;;23.75;10.60;;;;;;;;;;4967516;28;107675;-63
2021/12/05 11:01:11;;;;;;;22.42;10.55;;;;;;;;;;4965118;28;106398;-63
2021/12/05 11:03:38;;;;;;;20.00;10.63;;;;;;;;;;4943612;28;108168;-63
2021/12/05 11:06:22;;;;;;;21.05;10.93;;;;;;;;;;4959464;28;106585;-62
2021/12/05 11:08:59;;;;;;;25.00;10.70;;;;;;;;;;4959125;28;107268;-63
2021/12/05 11:11:26;;;;;;;21.67;10.60;;;;;;;;;;4962209;28;106045;-63
2021/12/05 11:13:53;;;;;;;20.02;10.20;;;;;;;;;;4965415;28;107666;-64
2021/12/05 11:16:36;;;;;;;21.33;10.57;;;;;;;;;;4962663;28;107272;-63
2021/12/05 11:19:15;;;;;;;25.08;10.43;;;;;;;;;;4954805;28;107153;-63
2021/12/05 11:21:49;;;;;;;21.42;10.30;;;;;;;;;;4968556;28;108493;-62
2021/12/05 11:24:25;;;;;;;19.42;9.82;;;;;;;;;;4963976;28;106122;-64
2021/12/05 11:27:03;;;;;;;22.27;10.85;;;;;;;;;;4964634;28;106760;-63
2021/12/05 11:29:43;;;;;;;17.98;9.57;;;;;;;;;;4965209;28;108278;-62
2021/12/05 11:32:11;;;;;;;18.02;9.75;;;;;;;;;;4966277;28;106413;-63
2021/12/05 11:34:37;;;;;;;20.65;10.20;;;;;;;;;;4958826;28;107057;-64
2021/12/05 11:37:04;;;;;;;18.40;9.45;;;;;;;;;;4963440;28;107464;-63
2021/12/05 11:39:36;;;;;;;20.00;9.40;;;;;;;;;;4964353;28;106361;-63
2021/12/05 11:42:10;;;;;;;18.20;9.35;;;;;;;;;;4970523;28;106443;-65
2021/12/05 11:44:36;;;;;;;17.42;9.70;;;;;;;;;;4963408;28;107613;-63
2021/12/05 11:47:10;;;;;;;20.63;10.15;;;;;;;;;;4961563;28;106997;-63
2021/12/05 11:49:36;;;;;;;18.98;9.55;;;;;;;;;;4962784;28;106435;-63
2021/12/05 11:52:03;;;;;;;18.42;9.82;;;;;;;;;;4968035;28;106184;-63
2021/12/05 11:54:37;;;;;;;18.35;10.05;;;;;;;;;;4963444;28;107215;-63
2021/12/05 11:57:14;;;;;;;18.60;9.18;;;;;;;;;;4964534;28;107627;-63
2021/12/05 11:59:45;;;;;;;19.50;9.85;;;;;;;;;;4965661;28;106182;-63
2021/12/05 12:02:30;;;;;;;17.88;10.55;;;;;;;;;;4960918;28;106989;-63
2021/12/05 12:05:06;;;;;;;21.95;11.27;;;;;;;;;;4957626;28;108836;-63
2021/12/05 12:07:35;;;;;;;19.67;10.70;;;;;;;;;;4965171;28;106677;-64
2021/12/05 12:10:13;;;;;;;20.67;10.88;;;;;;;;;;4959603;28;108263;-64
2021/12/05 12:12:41;;;;;;;22.25;11.30;;;;;;;;;;4960722;28;105649;-63
2021/12/05 12:15:09;;;;;;;21.60;10.35;;;;;;;;;;4965712;28;107055;-62
2021/12/05 12:17:36;;;;;;;19.40;10.15;;;;;;;;;;4962636;28;107643;-61
2021/12/05 12:20:04;;;;;;;19.42;10.55;;;;;;;;;;4962970;28;105945;-61
2021/12/05 12:22:30;;;;;;;19.98;10.20;;;;;;;;;;4961186;28;107047;-62
2021/12/05 12:25:00;;;;;;;21.95;9.57;;;;;;;;;;4942200;28;107695;-62
2021/12/05 12:27:27;;;;;;;18.63;9.55;;;;;;;;;;4966872;28;106502;-62
2021/12/05 12:29:56;;;;;;;17.58;9.13;;;;;;;;;;4966726;28;107312;-64
2021/12/05 12:32:25;;;;;;;16.35;8.93;;;;;;;;;;4963321;28;107344;-61
2021/12/05 12:35:04;;;;;;;20.27;9.30;;;;;;;;;;4963345;28;106415;-62
2021/12/05 12:37:30;;;;;;;17.02;9.30;;;;;;;;;;4959371;28;107524;-63
2021/12/05 12:39:57;;;;;;;22.40;9.70;;;;;;;;;;4964058;28;106393;-62
2021/12/05 12:42:25;;;;;;;23.55;9.50;;;;;;;;;;4962509;28;107967;-64
2021/12/05 12:44:56;;;;;;;18.65;9.70;;;;;;;;;;4964419;28;106836;-62
2021/12/05 12:47:33;;;;;;;17.98;9.00;;;;;;;;;;4961671;28;106660;-63
2021/12/05 12:50:18;;;;;;;19.98;9.25;;;;;;;;;;4968019;28;107178;-63
2021/12/05 12:52:56;;;;;;;19.95;9.90;;;;;;;;;;4965668;28;106172;-63
2021/12/05 12:55:27;;;;;;;19.35;9.60;;;;;;;;;;4965888;28;107148;-66
2021/12/05 12:57:53;;;;;;;23.52;9.10;;;;;;;;;;4963110;28;107659;-63
2021/12/05 13:00:22;;;;;;;18.02;9.52;;;;;;;;;;4968350;28;107225;-62
2021/12/05 13:11:04;;;;;;;17.05;8.90;;;;;;;;;;4965549;28;107124;-62
2021/12/05 13:13:32;;;;;;;18.42;9.52;;;;;;;;;;4969285;28;107448;-64
2021/12/05 13:16:09;;;;;;;17.13;8.82;;;;;;;;;;4948099;28;108241;-63
2021/12/05 13:18:36;;;;;;;14.73;8.60;;;;;;;;;;4961691;28;106879;-63
2021/12/05 13:21:08;;;;;;;18.30;8.85;;;;;;;;;;4955343;28;106563;-64
2021/12/05 13:23:37;;;;;;;16.65;8.63;;;;;;;;;;4965909;28;106863;-62
2021/12/05 13:26:23;;;;;;;19.58;10.48;;;;;;;;;;4963809;28;107545;-64
2021/12/05 13:29:14;;;;;;;18.58;9.05;;;;;;;;;;4959462;28;107951;-63
2021/12/05 13:31:42;;;;;;;17.27;8.57;;;;;;;;;;4964641;28;107366;-63
2021/12/05 13:34:14;;;;;;;18.83;9.52;;;;;;;;;;4964801;28;107515;-64
2021/12/05 13:36:42;;;;;;;13.95;8.45;;;;;;;;;;4950649;28;106261;-63
2021/12/05 13:39:35;;;;;;;16.73;9.02;;;;;;;;;;4959091;28;106340;-64
2021/12/05 13:42:18;;;;;;;15.90;8.80;;;;;;;;;;4956777;28;107646;-64
2021/12/05 13:44:57;;;;;;;17.63;8.60;;;;;;;;;;4961411;28;107151;-64
2021/12/05 13:47:29;;;;;;;15.98;8.43;;;;;;;;;;4963708;28;107544;-65
2021/12/05 13:49:56;;;;;;;17.40;8.70;;;;;;;;;;4957968;28;107286;-63
2021/12/05 13:52:27;;;;;;;14.60;8.00;;;;;;;;;;4966844;28;107014;-64
2021/12/05 13:54:53;;;;;;;17.48;8.60;;;;;;;;;;4963070;28;107760;-65
2021/12/05 13:57:20;;;;;;;18.73;9.25;;;;;;;;;;4965224;28;106066;-64
2021/12/05 13:59:46;;;;;;;14.80;8.50;;;;;;;;;;4963400;28;106641;-63
2021/12/05 14:02:14;;;;;;;26.33;11.02;;;;;;;;;;4966182;28;107841;-63
2021/12/05 14:04:40;;;;;;;18.67;9.27;;;;;;;;;;4965287;28;106739;-64
2021/12/05 14:07:07;;;;;;;12.95;7.50;;;;;;;;;;4966113;28;108014;-64
2021/12/05 14:09:37;;;;;;;14.60;8.43;;;;;;;;;;4964173;28;106341;-64
2021/12/05 14:12:13;;;;;;;14.65;7.90;;;;;;;;;;4963164;28;107345;-64
2021/12/05 14:14:44;;;;;;;13.55;7.90;;;;;;;;;;4957975;28;107084;-64
2021/12/05 14:17:13;;;;;;;12.57;7.78;;;;;;;;;;4958214;28;107207;-64
2021/12/05 14:19:40;;;;;;;14.70;8.00;;;;;;;;;;4966424;28;106545;-63
2021/12/05 14:22:08;;;;;;;13.43;8.30;;;;;;;;;;4956976;28;105992;-64
2021/12/05 14:24:37;;;;;;;14.20;8.55;;;;;;;;;;4966479;28;106583;-64
2021/12/05 14:27:05;;;;;;;19.00;9.90;;;;;;;;;;4964418;28;107796;-63
2021/12/05 14:29:33;;;;;;;19.85;9.75;;;;;;;;;;4965814;28;106046;-63
2021/12/05 14:32:03;;;;;;;16.33;9.90;;;;;;;;;;4960409;28;108208;-64
2021/12/05 14:34:30;;;;;;;15.82;9.15;;;;;;;;;;4960314;28;107206;-63
2021/12/05 14:36:58;;;;;;;18.75;9.63;;;;;;;;;;4964853;28;105947;-64
2021/12/05 14:39:37;;;;;;;16.70;9.70;;;;;;;;;;4962210;28;107186;-64
2021/12/05 14:42:05;;;;;;;16.70;8.93;;;;;;;;;;4968374;28;108263;-64
2021/12/05 14:44:32;;;;;;;15.70;9.68;;;;;;;;;;4965126;28;106076;-63
2021/12/05 14:46:58;;;;;;;17.25;9.27;;;;;;;;;;4964981;28;107624;-63
2021/12/05 14:49:27;;;;;;;14.00;8.73;;;;;;;;;;4962556;28;106718;-64
2021/12/05 14:51:54;;;;;;;14.90;8.82;;;;;;;;;;4960045;28;106472;-64
2021/12/05 14:54:23;;;;;;;16.30;9.10;;;;;;;;;;4963385;28;107650;-64
2021/12/05 14:56:51;;;;;;;16.10;9.00;;;;;;;;;;4963540;28;106116;-63
2021/12/05 14:59:17;;;;;;;15.55;9.20;;;;;;;;;;4964333;28;106731;-64
2021/12/05 15:01:48;;;;;;;15.40;9.73;;;;;;;;;;4965720;28;108803;-64
2021/12/05 15:04:20;;;;;;;18.05;9.85;;;;;;;;;;4948589;28;107514;-63
2021/12/05 15:06:47;;;;;;;18.52;8.90;;;;;;;;;;4960872;28;107049;-63
2021/12/05 15:09:19;;;;;;;16.40;9.88;;;;;;;;;;4963426;28;105937;-63
2021/12/05 15:11:57;;;;;;;16.88;9.10;;;;;;;;;;4961386;28;106691;-63
2021/12/05 15:14:24;;;;;;;21.92;11.30;;;;;;;;;;4963008;28;106564;-63
2021/12/05 15:16:55;;;;;;;26.45;11.95;;;;;;;;;;4959029;28;108190;-65
2021/12/05 15:19:22;;;;;;;21.95;10.25;;;;;;;;;;4964092;28;107798;-63
2021/12/05 15:21:49;;;;;;;19.23;10.65;;;;;;;;;;4961097;28;106299;-63
2021/12/05 15:24:17;;;;;;;16.90;9.15;;;;;;;;;;4961205;28;105645;-63
2021/12/05 15:26:44;;;;;;;17.98;10.07;;;;;;;;;;4962549;28;106677;-63
2021/12/05 15:29:11;;;;;;;18.35;10.70;;;;;;;;;;4957189;28;108114;-64
2021/12/05 15:31:48;;;;;;;20.00;11.13;;;;;;;;;;4958293;28;106386;-63
2021/12/05 15:34:24;;;;;;;21.20;12.38;;;;;;;;;;4957937;28;106615;-63
2021/12/05 15:36:51;;;;;;;22.95;12.27;;;;;;;;;;4960090;28;106699;-63
2021/12/05 15:39:21;;;;;;;20.63;11.68;;;;;;;;;;4944847;28;107673;-63
2021/12/05 15:41:49;;;;;;;20.55;10.63;;;;;;;;;;4961750;28;106509;-63
2021/12/05 15:44:31;;;;;;;22.20;12.00;;;;;;;;;;4958543;28;106003;-63
2021/12/05 15:47:06;;;;;;;19.67;11.27;;;;;;;;;;4940584;28;107378;-63
2021/12/05 15:49:52;;;;;;;19.83;11.52;;;;;;;;;;4962443;28;106268;-63
2021/12/05 15:52:27;;;;;;;25.02;11.63;;;;;;;;;;4963666;28;107578;-63
2021/12/05 15:54:55;;;;;;;22.60;11.45;;;;;;;;;;4959913;28;106462;-65
2021/12/05 15:57:28;;;;;;;21.02;12.20;;;;;;;;;;4959959;28;106284;-63
2021/12/05 15:59:55;;;;;;;24.48;14.10;;;;;;;;;;4959060;28;107002;-64
2021/12/05 16:02:22;;;;;;;23.15;13.35;;;;;;;;;;4962485;28;107929;-63
2021/12/05 16:04:49;;;;;;;27.02;13.70;;;;;;;;;;4964306;28;107146;-64
2021/12/05 16:07:16;;;;;;;29.75;15.68;;;;;;;;;;4959636;28;106818;-64
2021/12/05 16:09:43;;;;;;;38.33;17.48;;;;;;;;;;4965737;28;108190;-63
2021/12/05 16:12:14;;;;;;;39.00;17.60;;;;;;;;;;4957398;28;107157;-64
2021/12/05 16:14:42;;;;;;;44.75;18.92;;;;;;;;;;4966471;28;108596;-64
2021/12/05 16:17:16;;;;;;;54.35;21.70;;;;;;;;;;4963549;28;107400;-65
2021/12/05 16:20:00;;;;;;;62.05;23.08;;;;;;;;;;4960678;28;107209;-64
2021/12/05 16:22:28;;;;;;;48.85;21.50;;;;;;;;;;4958820;28;107936;-63
2021/12/05 16:24:55;;;;;;;43.42;20.25;;;;;;;;;;4955719;28;106741;-65
2021/12/05 16:27:21;;;;;;;41.65;22.15;;;;;;;;;;4963709;28;105912;-63
2021/12/05 16:29:47;;;;;;;31.27;17.05;;;;;;;;;;4958644;28;107665;-63
2021/12/05 16:32:14;;;;;;;29.10;16.27;;;;;;;;;;4949159;28;106768;-63
2021/12/05 16:34:46;;;;;;;25.58;14.30;;;;;;;;;;4950105;28;108944;-63
2021/12/05 16:37:13;;;;;;;28.38;14.95;;;;;;;;;;4957463;28;106336;-64
2021/12/05 16:39:42;;;;;;;29.55;15.48;;;;;;;;;;4962388;28;108335;-67
2021/12/05 16:42:09;;;;;;;;;;;;;;;;;;4960943;28;106249;-63
2021/12/05 16:44:39;;;;;;;33.20;17.00;;;;;;;;;;4962765;28;130075;-63
2021/12/05 16:47:10;;;;;;;35.33;17.30;;;;;;;;;;4963913;28;106523;-63
2021/12/05 16:49:39;;;;;;;31.55;15.75;;;;;;;;;;4961681;28;107589;-63
2021/12/05 16:52:07;;;;;;;32.53;14.32;;;;;;;;;;4963949;28;106022;-64
2021/12/05 16:54:45;;;;;;;29.00;14.15;;;;;;;;;;4970225;28;106159;-64
2021/12/05 16:57:19;;;;;;;26.45;13.90;;;;;;;;;;4963253;28;107241;-64
2021/12/05 16:59:47;;;;;;;27.33;13.23;;;;;;;;;;4965561;28;106893;-64
2021/12/05 17:02:30;;;;;;;26.50;12.98;;;;;;;;;;4962608;28;107617;-63
2021/12/05 17:05:05;;;;;;;23.95;12.93;;;;;;;;;;4963523;28;106319;-65
2021/12/05 17:07:37;;;;;;;33.45;16.48;;;;;;;;;;4958881;28;106896;-62
2021/12/05 17:10:27;;;;;;;26.80;12.63;;;;;;;;;;4954781;28;107543;-63
2021/12/05 17:13:04;;;;;;;25.58;12.90;;;;;;;;;;4964410;28;106524;-63
2021/12/05 17:15:32;;;;;;;24.83;12.77;;;;;;;;;;4964384;28;106523;-64
2021/12/05 17:18:03;;;;;;;28.70;13.13;;;;;;;;;;4966860;28;107699;-63
2021/12/05 17:20:31;;;;;;;24.35;13.43;;;;;;;;;;4964009;28;107016;-62
2021/12/05 17:22:59;;;;;;;21.40;12.02;;;;;;;;;;4965179;28;108061;-64
2021/12/05 17:25:30;;;;;;;21.38;12.25;;;;;;;;;;4962603;28;105923;-63
2021/12/05 17:27:57;;;;;;;30.27;16.20;;;;;;;;;;4964361;28;107062;-62
2021/12/05 17:30:23;;;;;;;38.30;21.40;;;;;;;;;;4955858;28;107679;-63
2021/12/05 17:32:50;;;;;;;40.78;22.33;;;;;;;;;;4965826;28;106669;-62
2021/12/05 17:35:16;;;;;;;51.13;30.70;;;;;;;;;;4965525;28;106836;-64
2021/12/05 17:37:44;;;;;;;43.38;25.75;;;;;;;;;;4961945;28;106334;-63
2021/12/05 17:40:29;;;;;;;30.05;17.88;;;;;;;;;;4968207;28;106695;-63
2021/12/05 17:42:56;;;;;;;29.13;15.35;;;;;;;;;;4945370;28;107538;-63
2021/12/05 17:45:22;;;;;;;25.23;13.68;;;;;;;;;;4959147;28;106407;-63
2021/12/05 17:47:48;;;;;;;26.10;12.60;;;;;;;;;;4963335;28;106811;-63
2021/12/05 17:50:20;;;;;;;41.92;22.20;;;;;;;;;;4963720;28;107363;-63
2021/12/05 17:52:48;;;;;;;44.53;25.95;;;;;;;;;;4963142;28;106187;-62
2021/12/05 17:55:24;;;;;;;40.13;22.00;;;;;;;;;;4961155;28;106832;-63
2021/12/05 17:58:00;;;;;;;64.35;39.42;;;;;;;;;;4962792;28;107644;-63
2021/12/05 18:03:03;;;;;;;74.15;37.90;;;;;;;;;;4963091;28;106596;-63
2021/12/05 18:05:38;;;;;;;48.90;26.17;;;;;;;;;;4962273;28;106992;-63
2021/12/05 18:08:07;;;;;;;34.83;17.38;;;;;;;;;;4956968;28;106841;-63
2021/12/05 18:10:38;;;;;;;61.05;29.75;;;;;;;;;;4966503;28;106969;-63
2021/12/05 18:13:09;;;;;;;35.38;17.52;;;;;;;;;;4962428;28;107511;-63
2021/12/05 18:16:03;;;;;;;46.28;23.08;;;;;;;;;;4950610;28;110420;-63
2021/12/05 18:18:30;;;;;;;71.20;27.03;;;;;;;;;;4943160;28;109400;-63
2021/12/05 18:20:57;;;;;;;69.57;31.45;;;;;;;;;;4958506;28;107639;-63
2021/12/05 18:23:24;;;;;;;48.63;24.55;;;;;;;;;;4964996;28;106884;-63
2021/12/05 18:25:50;;;;;;;43.00;21.58;;;;;;;;;;4958617;28;106282;-62
2021/12/05 18:28:17;;;;;;;41.60;19.85;;;;;;;;;;4961504;28;109007;-62
2021/12/05 18:30:44;;;;;;;62.15;25.65;;;;;;;;;;4961269;28;107300;-63
2021/12/05 18:33:12;;;;;;;45.60;20.88;;;;;;;;;;4962062;28;105974;-63
2021/12/05 18:35:38;;;;;;;48.45;21.13;;;;;;;;;;4963634;28;108227;-63
2021/12/05 18:38:08;;;;;;;56.03;24.90;;;;;;;;;;4965257;28;107478;-64
2021/12/05 18:40:35;;;;;;;52.97;23.95;;;;;;;;;;4962728;28;106892;-62
2021/12/05 18:43:02;;;;;;;47.78;19.92;;;;;;;;;;4964781;28;106231;-61
2021/12/05 18:45:31;;;;;;;45.83;18.83;;;;;;;;;;4964868;28;108028;-64
2021/12/05 18:47:59;;;;;;;41.90;19.33;;;;;;;;;;4963160;28;106353;-63
2021/12/05 18:50:26;;;;;;;40.80;18.10;;;;;;;;;;4962432;28;107485;-62
2021/12/05 18:52:52;;;;;;;44.05;19.45;;;;;;;;;;4957455;28;106532;-63
2021/12/05 18:55:21;;;;;;;52.53;25.45;;;;;;;;;;4961696;28;107432;-62
2021/12/05 18:57:48;;;;;;;148.05;71.55;;;;;;;;;;4957492;28;106834;-63
2021/12/05 19:00:26;;;;;;;81.15;38.45;;;;;;;;;;4957041;28;105691;-64
2021/12/05 19:06:09;;;;;;;48.53;24.00;;;;;;;;;;4957699;28;106972;-64
2021/12/05 19:13:40;;;;;;;45.15;22.60;;;;;;;;;;4963478;28;106910;-63
2021/12/05 19:16:07;;;;;;;51.13;26.40;;;;;;;;;;4961784;28;106863;-66
2021/12/05 19:18:34;;;;;;;59.00;29.17;;;;;;;;;;4961210;28;106317;-63
2021/12/05 19:21:00;;;;;;;55.10;27.48;;;;;;;;;;4959446;28;106315;-64
2021/12/05 19:23:27;;;;;;;62.65;30.75;;;;;;;;;;4950835;28;108620;-64
2021/12/05 19:25:54;;;;;;;48.50;22.65;;;;;;;;;;4956793;28;108033;-64
2021/12/05 19:28:20;;;;;;;57.60;28.75;;;;;;;;;;4959956;28;106944;-64
2021/12/05 19:30:48;;;;;;;50.78;21.27;;;;;;;;;;4957818;28;107235;-64
2021/12/05 19:33:16;;;;;;;42.63;20.83;;;;;;;;;;4961153;28;106346;-64
2021/12/05 19:35:52;;;;;;;41.72;20.83;;;;;;;;;;4958336;28;107068;-63
2021/12/05 19:38:23;;;;;;;42.67;18.48;;;;;;;;;;4961346;28;107443;-63
2021/12/05 19:40:51;;;;;;;36.55;17.90;;;;;;;;;;4960835;28;106699;-63